sensor_id;sensor_type;location;lat;lon;timestamp;temperature;humidity
1988;DHT22;12775;46.994;15.498;2023-07-29T00:00:53;23.90;99.90
1988;DHT22;12775;46.994;15.498;2023-07-29T00:03:20;23.80;99.90
1988;DHT22;12775;46.994;15.498;2023-07-29T00:05:48;23.80;99.90
1988;DHT22;12775;46.994;15.498;2023-07-29T00:08:15;23.80;99.90
1988;DHT22;12775;46.994;15.498;2023-07-29T00:10:42;23.80;99.90
1988;DHT22;12775;46.994;15.498;2023-07-29T00:13:09;23.80;99.90
1988;DHT22;12775;46.994;15.498;2023-07-29T00:15:36;23.80;99.90
1988;DHT22;12775;46.994;15.498;2023-07-29T00:18:02;23.80;99.90
1988;DHT22;12775;46.994;15.498;2023-07-29T00:20:29;23.80;99.90
1988;DHT22;12775;46.994;15.498;2023-07-29T00:22:55;23.80;99.90
1988;DHT22;12775;46.994;15.498;2023-07-29T00:25:23;23.70;99.90
1988;DHT22;12775;46.994;15.498;2023-07-29T00:27:49;23.70;99.90
1988;DHT22;12775;46.994;15.498;2023-07-29T00:30:16;23.70;99.90
1988;DHT22;12775;46.994;15.498;2023-07-29T00:32:42;23.70;99.90
1988;DHT22;12775;46.994;15.498;2023-07-29T00:35:09;23.70;99.90
1988;DHT22;12775;46.994;15.498;2023-07-29T00:37:36;23.70;99.90
1988;DHT22;12775;46.994;15.498;2023-07-29T00:40:06;23.60;99.90
1988;DHT22;12775;46.994;15.498;2023-07-29T00:42:30;23.60;99.90
1988;DHT22;12775;46.994;15.498;2023-07-29T00:44:57;23.60;99.90
1988;DHT22;12775;46.994;15.498;2023-07-29T00:47:23;23.60;99.90
1988;DHT22;12775;46.994;15.498;2023-07-29T00:49:50;23.60;99.90
1988;DHT22;12775;46.994;15.498;2023-07-29T00:52:17;23.60;99.90
1988;DHT22;12775;46.994;15.498;2023-07-29T00:54:44;23.50;99.90
1988;DHT22;12775;46.994;15.498;2023-07-29T00:57:11;23.50;99.90
1988;DHT22;12775;46.994;15.498;2023-07-29T00:59:37;23.50;99.90
1988;DHT22;12775;46.994;15.498;2023-07-29T01:02:04;23.50;99.90
1988;DHT22;12775;46.994;15.498;2023-07-29T01:04:31;23.50;99.90
1988;DHT22;12775;46.994;15.498;2023-07-29T01:07:37;23.40;99.90
1988;DHT22;12775;46.994;15.498;2023-07-29T01:09:55;23.50;99.90
1988;DHT22;12775;46.994;15.498;2023-07-29T01:12:22;23.40;99.90
1988;DHT22;12775;46.994;15.498;2023-07-29T01:17:46;23.30;99.90
1988;DHT22;12775;46.994;15.498;2023-07-29T01:20:11;23.30;99.90
1988;DHT22;12775;46.994;15.498;2023-07-29T01:22:37;23.30;99.90
1988;DHT22;12775;46.994;15.498;2023-07-29T01:25:03;23.20;99.90
1988;DHT22;12775;46.994;15.498;2023-07-29T01:27:30;23.10;99.90
1988;DHT22;12775;46.994;15.498;2023-07-29T01:29:57;23.00;99.90
1988;DHT22;12775;46.994;15.498;2023-07-29T01:35:19;22.90;99.90
1988;DHT22;12775;46.994;15.498;2023-07-29T01:37:46;22.90;99.90
1988;DHT22;12775;46.994;15.498;2023-07-29T01:40:11;22.90;99.90
1988;DHT22;12775;46.994;15.498;2023-07-29T01:42:37;22.80;99.90
1988;DHT22;12775;46.994;15.498;2023-07-29T01:45:04;22.80;99.90
1988;DHT22;12775;46.994;15.498;2023-07-29T01:47:31;22.80;99.90
1988;DHT22;12775;46.994;15.498;2023-07-29T01:49:58;22.70;99.90
1988;DHT22;12775;46.994;15.498;2023-07-29T01:52:24;22.80;99.90
1988;DHT22;12775;46.994;15.498;2023-07-29T01:54:51;22.70;99.90
1988;DHT22;12775;46.994;15.498;2023-07-29T01:57:17;22.60;99.90
1988;DHT22;12775;46.994;15.498;2023-07-29T01:59:44;22.60;99.90
1988;DHT22;12775;46.994;15.498;2023-07-29T02:02:11;22.50;99.90
1988;DHT22;12775;46.994;15.498;2023-07-29T02:04:37;22.50;99.90
1988;DHT22;12775;46.994;15.498;2023-07-29T02:07:05;22.50;99.90
1988;DHT22;12775;46.994;15.498;2023-07-29T02:09:32;22.50;99.90
1988;DHT22;12775;46.994;15.498;2023-07-29T02:11:59;22.40;99.90
1988;DHT22;12775;46.994;15.498;2023-07-29T02:14:26;22.50;99.90
1988;DHT22;12775;46.994;15.498;2023-07-29T02:16:53;22.40;99.90
1988;DHT22;12775;46.994;15.498;2023-07-29T02:19:19;22.30;99.90
1988;DHT22;12775;46.994;15.498;2023-07-29T02:21:46;22.20;99.90
1988;DHT22;12775;46.994;15.498;2023-07-29T02:24:12;22.20;99.90
1988;DHT22;12775;46.994;15.498;2023-07-29T02:26:39;22.10;99.90
1988;DHT22;12775;46.994;15.498;2023-07-29T02:29:06;22.10;99.90
1988;DHT22;12775;46.994;15.498;2023-07-29T02:31:32;22.10;99.90
1988;DHT22;12775;46.994;15.498;2023-07-29T02:33:59;22.10;99.90
1988;DHT22;12775;46.994;15.498;2023-07-29T02:36:25;22.00;99.90
1988;DHT22;12775;46.994;15.498;2023-07-29T02:38:52;21.90;99.90
1988;DHT22;12775;46.994;15.498;2023-07-29T02:41:19;21.90;99.90
1988;DHT22;12775;46.994;15.498;2023-07-29T02:43:48;21.80;99.90
1988;DHT22;12775;46.994;15.498;2023-07-29T02:46:14;21.80;99.90
1988;DHT22;12775;46.994;15.498;2023-07-29T02:48:42;21.80;99.90
1988;DHT22;12775;46.994;15.498;2023-07-29T02:51:08;21.80;99.90
1988;DHT22;12775;46.994;15.498;2023-07-29T02:53:34;21.80;99.90
1988;DHT22;12775;46.994;15.498;2023-07-29T02:56:01;21.80;99.90
1988;DHT22;12775;46.994;15.498;2023-07-29T02:58:28;21.80;99.90
1988;DHT22;12775;46.994;15.498;2023-07-29T03:01:02;21.80;99.90
1988;DHT22;12775;46.994;15.498;2023-07-29T03:03:28;21.90;99.90
1988;DHT22;12775;46.994;15.498;2023-07-29T03:06:02;21.90;99.90
1988;DHT22;12775;46.994;15.498;2023-07-29T03:08:28;21.90;99.90
1988;DHT22;12775;46.994;15.498;2023-07-29T03:10:55;21.90;99.90
1988;DHT22;12775;46.994;15.498;2023-07-29T03:13:21;21.90;99.90
1988;DHT22;12775;46.994;15.498;2023-07-29T03:15:48;21.90;99.90
1988;DHT22;12775;46.994;15.498;2023-07-29T03:18:14;21.90;99.90
1988;DHT22;12775;46.994;15.498;2023-07-29T03:20:41;21.90;99.90
1988;DHT22;12775;46.994;15.498;2023-07-29T03:23:07;21.90;99.90
1988;DHT22;12775;46.994;15.498;2023-07-29T03:25:34;21.90;99.90
1988;DHT22;12775;46.994;15.498;2023-07-29T03:28:01;22.00;99.90
1988;DHT22;12775;46.994;15.498;2023-07-29T03:30:27;22.00;99.90
1988;DHT22;12775;46.994;15.498;2023-07-29T03:32:54;22.00;99.90
1988;DHT22;12775;46.994;15.498;2023-07-29T03:35:22;22.10;99.90
1988;DHT22;12775;46.994;15.498;2023-07-29T03:37:49;22.00;99.90
1988;DHT22;12775;46.994;15.498;2023-07-29T03:40:15;22.10;99.90
1988;DHT22;12775;46.994;15.498;2023-07-29T03:42:43;22.10;99.90
1988;DHT22;12775;46.994;15.498;2023-07-29T03:45:09;22.00;99.90
1988;DHT22;12775;46.994;15.498;2023-07-29T03:47:36;22.00;99.90
1988;DHT22;12775;46.994;15.498;2023-07-29T03:50:03;22.00;99.90
1988;DHT22;12775;46.994;15.498;2023-07-29T03:52:29;22.00;99.90
1988;DHT22;12775;46.994;15.498;2023-07-29T03:54:56;21.90;99.90
1988;DHT22;12775;46.994;15.498;2023-07-29T03:57:23;21.90;99.90
1988;DHT22;12775;46.994;15.498;2023-07-29T03:59:50;21.90;99.90
1988;DHT22;12775;46.994;15.498;2023-07-29T04:02:17;21.90;99.90
1988;DHT22;12775;46.994;15.498;2023-07-29T04:04:43;21.90;99.90
1988;DHT22;12775;46.994;15.498;2023-07-29T04:07:10;21.90;99.90
1988;DHT22;12775;46.994;15.498;2023-07-29T04:09:36;21.80;99.90
1988;DHT22;12775;46.994;15.498;2023-07-29T04:12:04;21.90;99.90
1988;DHT22;12775;46.994;15.498;2023-07-29T04:14:31;21.80;99.90
1988;DHT22;12775;46.994;15.498;2023-07-29T04:16:58;21.80;99.90
1988;DHT22;12775;46.994;15.498;2023-07-29T04:19:24;21.80;99.90
1988;DHT22;12775;46.994;15.498;2023-07-29T04:21:51;21.80;99.90
1988;DHT22;12775;46.994;15.498;2023-07-29T04:24:17;21.80;99.90
1988;DHT22;12775;46.994;15.498;2023-07-29T04:26:44;21.80;99.90
1988;DHT22;12775;46.994;15.498;2023-07-29T04:29:11;21.80;99.90
1988;DHT22;12775;46.994;15.498;2023-07-29T04:31:37;21.80;99.90
1988;DHT22;12775;46.994;15.498;2023-07-29T04:34:04;21.80;99.90
1988;DHT22;12775;46.994;15.498;2023-07-29T04:36:31;21.80;99.90
1988;DHT22;12775;46.994;15.498;2023-07-29T04:38:58;21.80;99.90
1988;DHT22;12775;46.994;15.498;2023-07-29T04:41:24;21.80;99.90
1988;DHT22;12775;46.994;15.498;2023-07-29T04:43:51;21.70;99.90
1988;DHT22;12775;46.994;15.498;2023-07-29T04:46:18;21.70;99.90
1988;DHT22;12775;46.994;15.498;2023-07-29T04:48:46;21.70;99.90
1988;DHT22;12775;46.994;15.498;2023-07-29T04:51:13;21.70;99.90
1988;DHT22;12775;46.994;15.498;2023-07-29T04:53:40;21.70;99.90
1988;DHT22;12775;46.994;15.498;2023-07-29T04:56:07;21.80;99.90
1988;DHT22;12775;46.994;15.498;2023-07-29T04:58:35;21.70;99.90
1988;DHT22;12775;46.994;15.498;2023-07-29T05:01:02;21.80;99.90
1988;DHT22;12775;46.994;15.498;2023-07-29T05:03:28;21.80;99.90
1988;DHT22;12775;46.994;15.498;2023-07-29T05:05:55;21.90;99.90
1988;DHT22;12775;46.994;15.498;2023-07-29T05:08:22;21.90;99.90
1988;DHT22;12775;46.994;15.498;2023-07-29T05:10:49;21.90;99.90
1988;DHT22;12775;46.994;15.498;2023-07-29T05:13:16;22.00;99.90
1988;DHT22;12775;46.994;15.498;2023-07-29T05:15:43;22.10;99.90
1988;DHT22;12775;46.994;15.498;2023-07-29T05:18:09;22.10;99.90
1988;DHT22;12775;46.994;15.498;2023-07-29T05:20:36;22.10;99.90
1988;DHT22;12775;46.994;15.498;2023-07-29T05:23:02;22.20;99.90
1988;DHT22;12775;46.994;15.498;2023-07-29T05:25:29;22.30;99.90
1988;DHT22;12775;46.994;15.498;2023-07-29T05:27:56;22.30;99.90
1988;DHT22;12775;46.994;15.498;2023-07-29T05:30:22;22.40;99.90
1988;DHT22;12775;46.994;15.498;2023-07-29T05:32:49;22.40;99.90
1988;DHT22;12775;46.994;15.498;2023-07-29T05:35:16;22.50;99.90
1988;DHT22;12775;46.994;15.498;2023-07-29T05:37:43;22.60;99.90
1988;DHT22;12775;46.994;15.498;2023-07-29T05:40:11;22.60;99.90
1988;DHT22;12775;46.994;15.498;2023-07-29T05:42:37;22.60;99.90
1988;DHT22;12775;46.994;15.498;2023-07-29T05:45:04;22.70;99.90
1988;DHT22;12775;46.994;15.498;2023-07-29T05:47:31;22.70;99.90
1988;DHT22;12775;46.994;15.498;2023-07-29T05:49:58;22.70;99.90
1988;DHT22;12775;46.994;15.498;2023-07-29T05:52:25;22.70;99.90
1988;DHT22;12775;46.994;15.498;2023-07-29T05:54:51;22.70;99.90
1988;DHT22;12775;46.994;15.498;2023-07-29T05:57:18;22.80;99.90
1988;DHT22;12775;46.994;15.498;2023-07-29T05:59:44;22.80;99.90
1988;DHT22;12775;46.994;15.498;2023-07-29T06:02:11;22.90;99.90
1988;DHT22;12775;46.994;15.498;2023-07-29T06:04:38;22.80;99.90
1988;DHT22;12775;46.994;15.498;2023-07-29T06:07:05;22.70;99.90
1988;DHT22;12775;46.994;15.498;2023-07-29T06:09:32;22.60;99.90
1988;DHT22;12775;46.994;15.498;2023-07-29T06:11:59;22.60;99.90
1988;DHT22;12775;46.994;15.498;2023-07-29T06:14:25;22.50;99.90
1988;DHT22;12775;46.994;15.498;2023-07-29T06:16:53;22.50;99.90
1988;DHT22;12775;46.994;15.498;2023-07-29T06:19:20;22.60;99.90
1988;DHT22;12775;46.994;15.498;2023-07-29T06:21:47;22.60;99.90
1988;DHT22;12775;46.994;15.498;2023-07-29T06:24:13;22.60;99.90
1988;DHT22;12775;46.994;15.498;2023-07-29T06:26:40;22.70;99.90
1988;DHT22;12775;46.994;15.498;2023-07-29T06:29:07;22.70;99.90
1988;DHT22;12775;46.994;15.498;2023-07-29T06:31:33;22.80;99.90
1988;DHT22;12775;46.994;15.498;2023-07-29T06:34:01;22.90;99.90
1988;DHT22;12775;46.994;15.498;2023-07-29T06:36:27;22.90;99.90
1988;DHT22;12775;46.994;15.498;2023-07-29T06:38:54;23.00;99.90
1988;DHT22;12775;46.994;15.498;2023-07-29T06:41:20;23.10;99.90
1988;DHT22;12775;46.994;15.498;2023-07-29T06:43:48;23.20;99.90
1988;DHT22;12775;46.994;15.498;2023-07-29T06:46:14;23.30;99.90
1988;DHT22;12775;46.994;15.498;2023-07-29T06:48:41;23.40;99.90
1988;DHT22;12775;46.994;15.498;2023-07-29T06:51:08;23.60;99.90
1988;DHT22;12775;46.994;15.498;2023-07-29T06:53:34;23.70;99.90
1988;DHT22;12775;46.994;15.498;2023-07-29T06:56:01;23.80;99.90
1988;DHT22;12775;46.994;15.498;2023-07-29T06:58:27;23.90;99.90
1988;DHT22;12775;46.994;15.498;2023-07-29T07:00:54;24.00;99.90
1988;DHT22;12775;46.994;15.498;2023-07-29T07:03:21;24.10;99.90
1988;DHT22;12775;46.994;15.498;2023-07-29T07:05:47;24.20;99.90
1988;DHT22;12775;46.994;15.498;2023-07-29T07:08:15;24.40;99.90
1988;DHT22;12775;46.994;15.498;2023-07-29T07:10:41;24.30;99.90
1988;DHT22;12775;46.994;15.498;2023-07-29T07:13:08;24.40;99.90
1988;DHT22;12775;46.994;15.498;2023-07-29T07:15:34;24.50;99.90
1988;DHT22;12775;46.994;15.498;2023-07-29T07:18:02;24.70;99.90
1988;DHT22;12775;46.994;15.498;2023-07-29T07:20:29;24.80;99.90
1988;DHT22;12775;46.994;15.498;2023-07-29T07:22:57;25.00;99.90
1988;DHT22;12775;46.994;15.498;2023-07-29T07:25:23;25.00;99.90
1988;DHT22;12775;46.994;15.498;2023-07-29T07:27:51;25.20;99.90
1988;DHT22;12775;46.994;15.498;2023-07-29T07:30:18;25.20;99.90
1988;DHT22;12775;46.994;15.498;2023-07-29T07:32:45;25.30;99.90
1988;DHT22;12775;46.994;15.498;2023-07-29T07:35:11;25.50;99.90
1988;DHT22;12775;46.994;15.498;2023-07-29T07:37:38;25.60;99.90
1988;DHT22;12775;46.994;15.498;2023-07-29T07:40:05;25.80;99.90
1988;DHT22;12775;46.994;15.498;2023-07-29T07:42:32;26.10;99.90
1988;DHT22;12775;46.994;15.498;2023-07-29T07:44:58;26.40;99.90
1988;DHT22;12775;46.994;15.498;2023-07-29T07:47:26;26.60;99.90
1988;DHT22;12775;46.994;15.498;2023-07-29T07:49:53;27.10;99.90
1988;DHT22;12775;46.994;15.498;2023-07-29T07:52:20;27.00;99.90
1988;DHT22;12775;46.994;15.498;2023-07-29T07:54:51;27.40;99.90
1988;DHT22;12775;46.994;15.498;2023-07-29T07:57:14;27.30;99.90
1988;DHT22;12775;46.994;15.498;2023-07-29T07:59:41;27.60;99.90
1988;DHT22;12775;46.994;15.498;2023-07-29T08:02:07;27.70;99.90
1988;DHT22;12775;46.994;15.498;2023-07-29T08:04:34;27.90;99.90
1988;DHT22;12775;46.994;15.498;2023-07-29T08:07:00;28.10;99.90
1988;DHT22;12775;46.994;15.498;2023-07-29T08:09:27;28.20;98.20
1988;DHT22;12775;46.994;15.498;2023-07-29T08:11:54;28.40;99.90
1988;DHT22;12775;46.994;15.498;2023-07-29T08:14:21;28.40;96.80
1988;DHT22;12775;46.994;15.498;2023-07-29T08:16:48;28.60;97.80
1988;DHT22;12775;46.994;15.498;2023-07-29T08:19:14;28.50;96.70
1988;DHT22;12775;46.994;15.498;2023-07-29T08:21:42;28.50;94.70
1988;DHT22;12775;46.994;15.498;2023-07-29T08:24:08;28.50;96.70
1988;DHT22;12775;46.994;15.498;2023-07-29T08:26:35;28.40;96.10
1988;DHT22;12775;46.994;15.498;2023-07-29T08:29:02;28.40;96.00
1988;DHT22;12775;46.994;15.498;2023-07-29T08:31:29;28.30;96.10
1988;DHT22;12775;46.994;15.498;2023-07-29T08:33:56;28.30;96.10
1988;DHT22;12775;46.994;15.498;2023-07-29T08:36:23;28.30;96.10
1988;DHT22;12775;46.994;15.498;2023-07-29T08:38:50;28.30;97.80
1988;DHT22;12775;46.994;15.498;2023-07-29T08:41:19;28.50;99.10
1988;DHT22;12775;46.994;15.498;2023-07-29T08:43:49;28.90;95.50
1988;DHT22;12775;46.994;15.498;2023-07-29T08:46:11;28.90;95.40
1988;DHT22;12775;46.994;15.498;2023-07-29T08:48:40;29.00;93.00
1988;DHT22;12775;46.994;15.498;2023-07-29T08:51:07;28.90;94.60
1988;DHT22;12775;46.994;15.498;2023-07-29T08:53:33;29.10;93.70
1988;DHT22;12775;46.994;15.498;2023-07-29T08:56:00;29.10;95.00
1988;DHT22;12775;46.994;15.498;2023-07-29T08:58:26;29.20;90.20
1988;DHT22;12775;46.994;15.498;2023-07-29T09:00:53;29.20;91.30
1988;DHT22;12775;46.994;15.498;2023-07-29T09:03:20;29.40;92.90
1988;DHT22;12775;46.994;15.498;2023-07-29T09:05:46;29.60;94.00
1988;DHT22;12775;46.994;15.498;2023-07-29T09:08:13;29.80;93.10
1988;DHT22;12775;46.994;15.498;2023-07-29T09:10:40;30.00;89.90
1988;DHT22;12775;46.994;15.498;2023-07-29T09:13:07;30.20;83.60
1988;DHT22;12775;46.994;15.498;2023-07-29T09:15:35;30.10;83.40
1988;DHT22;12775;46.994;15.498;2023-07-29T09:18:09;30.00;81.00
1988;DHT22;12775;46.994;15.498;2023-07-29T09:20:35;30.00;90.70
1988;DHT22;12775;46.994;15.498;2023-07-29T09:23:02;30.10;84.40
1988;DHT22;12775;46.994;15.498;2023-07-29T09:25:29;30.10;90.80
1988;DHT22;12775;46.994;15.498;2023-07-29T09:27:59;30.50;92.50
1988;DHT22;12775;46.994;15.498;2023-07-29T09:30:26;30.60;87.80
1988;DHT22;12775;46.994;15.498;2023-07-29T09:32:56;30.60;88.60
1988;DHT22;12775;46.994;15.498;2023-07-29T09:35:22;30.60;83.20
1988;DHT22;12775;46.994;15.498;2023-07-29T09:37:50;30.80;92.10
1988;DHT22;12775;46.994;15.498;2023-07-29T09:40:16;30.70;79.70
1988;DHT22;12775;46.994;15.498;2023-07-29T09:42:48;30.60;80.70
1988;DHT22;12775;46.994;15.498;2023-07-29T09:45:20;30.70;80.30
1988;DHT22;12775;46.994;15.498;2023-07-29T09:47:46;30.60;79.10
1988;DHT22;12775;46.994;15.498;2023-07-29T09:50:12;30.60;81.40
1988;DHT22;12775;46.994;15.498;2023-07-29T09:52:39;30.60;82.30
1988;DHT22;12775;46.994;15.498;2023-07-29T09:55:05;30.70;84.40
1988;DHT22;12775;46.994;15.498;2023-07-29T09:57:32;30.80;82.60
1988;DHT22;12775;46.994;15.498;2023-07-29T09:59:59;30.90;76.40
1988;DHT22;12775;46.994;15.498;2023-07-29T10:02:25;31.00;78.20
1988;DHT22;12775;46.994;15.498;2023-07-29T10:04:53;31.00;78.00
1988;DHT22;12775;46.994;15.498;2023-07-29T10:07:20;31.00;79.70
1988;DHT22;12775;46.994;15.498;2023-07-29T10:09:46;31.20;78.70
1988;DHT22;12775;46.994;15.498;2023-07-29T10:12:13;31.30;79.60
1988;DHT22;12775;46.994;15.498;2023-07-29T10:14:39;31.20;75.30
1988;DHT22;12775;46.994;15.498;2023-07-29T10:17:06;31.10;77.50
1988;DHT22;12775;46.994;15.498;2023-07-29T10:19:33;31.10;77.00
1988;DHT22;12775;46.994;15.498;2023-07-29T10:22:00;30.90;77.30
1988;DHT22;12775;46.994;15.498;2023-07-29T10:24:29;30.90;79.00
1988;DHT22;12775;46.994;15.498;2023-07-29T10:26:56;31.00;76.90
1988;DHT22;12775;46.994;15.498;2023-07-29T10:29:20;31.10;84.40
1988;DHT22;12775;46.994;15.498;2023-07-29T10:31:47;31.20;78.20
1988;DHT22;12775;46.994;15.498;2023-07-29T10:34:14;31.20;76.10
1988;DHT22;12775;46.994;15.498;2023-07-29T10:36:40;31.20;75.10
1988;DHT22;12775;46.994;15.498;2023-07-29T10:39:07;31.40;74.70
1988;DHT22;12775;46.994;15.498;2023-07-29T10:46:50;31.30;73.50
1988;DHT22;12775;46.994;15.498;2023-07-29T10:49:17;31.20;72.00
1988;DHT22;12775;46.994;15.498;2023-07-29T10:51:44;31.20;71.10
1988;DHT22;12775;46.994;15.498;2023-07-29T10:54:11;31.10;73.50
1988;DHT22;12775;46.994;15.498;2023-07-29T10:56:41;31.20;71.10
1988;DHT22;12775;46.994;15.498;2023-07-29T10:59:32;31.30;73.60
1988;DHT22;12775;46.994;15.498;2023-07-29T11:01:59;31.20;72.10
1988;DHT22;12775;46.994;15.498;2023-07-29T11:04:26;31.20;73.60
1988;DHT22;12775;46.994;15.498;2023-07-29T11:07:18;31.20;74.00
1988;DHT22;12775;46.994;15.498;2023-07-29T11:10:01;31.20;71.80
1988;DHT22;12775;46.994;15.498;2023-07-29T11:12:39;31.10;72.00
1988;DHT22;12775;46.994;15.498;2023-07-29T11:15:13;31.00;74.70
1988;DHT22;12775;46.994;15.498;2023-07-29T11:17:40;31.00;74.90
1988;DHT22;12775;46.994;15.498;2023-07-29T11:20:07;30.90;74.20
1988;DHT22;12775;46.994;15.498;2023-07-29T11:22:34;31.00;74.70
1988;DHT22;12775;46.994;15.498;2023-07-29T11:25:01;31.10;80.20
1988;DHT22;12775;46.994;15.498;2023-07-29T11:27:27;31.00;80.10
1988;DHT22;12775;46.994;15.498;2023-07-29T11:29:57;31.20;75.20
1988;DHT22;12775;46.994;15.498;2023-07-29T11:32:23;31.20;77.90
1988;DHT22;12775;46.994;15.498;2023-07-29T11:34:49;31.30;77.40
1988;DHT22;12775;46.994;15.498;2023-07-29T11:37:16;31.20;77.30
1988;DHT22;12775;46.994;15.498;2023-07-29T11:39:43;31.30;76.50
1988;DHT22;12775;46.994;15.498;2023-07-29T11:42:11;31.40;78.10
1988;DHT22;12775;46.994;15.498;2023-07-29T11:44:37;31.20;77.40
1988;DHT22;12775;46.994;15.498;2023-07-29T11:47:06;31.30;78.00
1988;DHT22;12775;46.994;15.498;2023-07-29T11:49:32;31.30;77.80
1988;DHT22;12775;46.994;15.498;2023-07-29T11:52:00;31.50;79.90
1988;DHT22;12775;46.994;15.498;2023-07-29T11:54:26;31.60;78.20
1988;DHT22;12775;46.994;15.498;2023-07-29T11:56:53;31.80;76.50
1988;DHT22;12775;46.994;15.498;2023-07-29T11:59:19;31.80;76.70
1988;DHT22;12775;46.994;15.498;2023-07-29T12:01:46;32.00;80.40
1988;DHT22;12775;46.994;15.498;2023-07-29T12:04:13;32.00;78.60
1988;DHT22;12775;46.994;15.498;2023-07-29T12:06:39;31.90;78.30
1988;DHT22;12775;46.994;15.498;2023-07-29T12:09:06;32.00;78.70
1988;DHT22;12775;46.994;15.498;2023-07-29T12:11:33;32.00;77.80
1988;DHT22;12775;46.994;15.498;2023-07-29T12:14:00;31.90;76.40
1988;DHT22;12775;46.994;15.498;2023-07-29T12:16:26;31.90;75.90
1988;DHT22;12775;46.994;15.498;2023-07-29T12:18:53;31.90;77.80
1988;DHT22;12775;46.994;15.498;2023-07-29T12:21:20;31.80;77.60
1988;DHT22;12775;46.994;15.498;2023-07-29T12:23:46;31.90;78.20
1988;DHT22;12775;46.994;15.498;2023-07-29T12:26:13;31.90;77.70
1988;DHT22;12775;46.994;15.498;2023-07-29T12:28:44;32.10;80.10
1988;DHT22;12775;46.994;15.498;2023-07-29T12:31:07;32.10;76.70
1988;DHT22;12775;46.994;15.498;2023-07-29T12:33:34;32.20;78.90
1988;DHT22;12775;46.994;15.498;2023-07-29T12:36:00;32.20;77.70
1988;DHT22;12775;46.994;15.498;2023-07-29T12:38:28;32.30;77.20
1988;DHT22;12775;46.994;15.498;2023-07-29T12:40:54;32.30;80.10
1988;DHT22;12775;46.994;15.498;2023-07-29T12:43:21;32.20;76.50
1988;DHT22;12775;46.994;15.498;2023-07-29T12:45:49;32.20;77.30
1988;DHT22;12775;46.994;15.498;2023-07-29T12:48:16;32.30;79.20
1988;DHT22;12775;46.994;15.498;2023-07-29T12:50:42;32.50;78.10
1988;DHT22;12775;46.994;15.498;2023-07-29T12:53:09;32.60;75.80
1988;DHT22;12775;46.994;15.498;2023-07-29T12:55:37;33.00;78.70
1988;DHT22;12775;46.994;15.498;2023-07-29T12:58:04;33.00;78.70
1988;DHT22;12775;46.994;15.498;2023-07-29T13:00:30;32.90;73.60
1988;DHT22;12775;46.994;15.498;2023-07-29T13:02:57;32.80;72.90
1988;DHT22;12775;46.994;15.498;2023-07-29T13:05:24;32.50;72.40
1988;DHT22;12775;46.994;15.498;2023-07-29T13:07:50;32.40;72.90
1988;DHT22;12775;46.994;15.498;2023-07-29T13:10:17;32.30;77.00
1988;DHT22;12775;46.994;15.498;2023-07-29T13:12:43;32.30;75.40
1988;DHT22;12775;46.994;15.498;2023-07-29T13:15:10;32.40;73.40
1988;DHT22;12775;46.994;15.498;2023-07-29T13:17:37;32.50;81.00
1988;DHT22;12775;46.994;15.498;2023-07-29T13:20:04;32.60;75.00
1988;DHT22;12775;46.994;15.498;2023-07-29T13:22:31;32.90;86.20
1988;DHT22;12775;46.994;15.498;2023-07-29T13:24:58;32.80;86.20
1988;DHT22;12775;46.994;15.498;2023-07-29T13:27:24;32.90;81.30
1988;DHT22;12775;46.994;15.498;2023-07-29T13:29:51;33.00;81.30
1988;DHT22;12775;46.994;15.498;2023-07-29T13:32:18;33.00;81.90
1988;DHT22;12775;46.994;15.498;2023-07-29T13:34:44;33.00;82.50
1988;DHT22;12775;46.994;15.498;2023-07-29T13:37:12;32.60;76.10
1988;DHT22;12775;46.994;15.498;2023-07-29T13:39:38;32.60;76.00
1988;DHT22;12775;46.994;15.498;2023-07-29T13:42:06;32.60;78.20
1988;DHT22;12775;46.994;15.498;2023-07-29T13:44:33;32.60;77.90
1988;DHT22;12775;46.994;15.498;2023-07-29T13:46:59;32.30;79.40
1988;DHT22;12775;46.994;15.498;2023-07-29T13:49:26;32.30;82.80
1988;DHT22;12775;46.994;15.498;2023-07-29T13:51:53;32.30;83.90
1988;DHT22;12775;46.994;15.498;2023-07-29T13:54:20;32.40;82.50
1988;DHT22;12775;46.994;15.498;2023-07-29T13:56:46;32.50;83.30
1988;DHT22;12775;46.994;15.498;2023-07-29T13:59:13;32.60;82.80
1988;DHT22;12775;46.994;15.498;2023-07-29T14:01:40;32.80;86.00
1988;DHT22;12775;46.994;15.498;2023-07-29T14:04:06;33.00;82.20
1988;DHT22;12775;46.994;15.498;2023-07-29T14:06:33;33.20;81.10
1988;DHT22;12775;46.994;15.498;2023-07-29T14:09:00;33.20;78.80
1988;DHT22;12775;46.994;15.498;2023-07-29T14:11:27;33.30;80.70
1988;DHT22;12775;46.994;15.498;2023-07-29T14:13:55;33.40;79.60
1988;DHT22;12775;46.994;15.498;2023-07-29T14:16:21;33.40;76.30
1988;DHT22;12775;46.994;15.498;2023-07-29T14:18:48;33.50;78.70
1988;DHT22;12775;46.994;15.498;2023-07-29T14:21:15;33.40;78.60
1988;DHT22;12775;46.994;15.498;2023-07-29T14:23:42;33.60;80.80
1988;DHT22;12775;46.994;15.498;2023-07-29T14:26:08;33.70;77.70
1988;DHT22;12775;46.994;15.498;2023-07-29T14:28:35;33.60;74.70
1988;DHT22;12775;46.994;15.498;2023-07-29T14:31:01;33.70;80.30
1988;DHT22;12775;46.994;15.498;2023-07-29T14:33:28;33.80;79.40
1988;DHT22;12775;46.994;15.498;2023-07-29T14:35:55;34.00;79.80
1988;DHT22;12775;46.994;15.498;2023-07-29T14:38:23;34.10;79.50
1988;DHT22;12775;46.994;15.498;2023-07-29T14:40:49;34.00;79.40
1988;DHT22;12775;46.994;15.498;2023-07-29T14:43:16;34.10;74.90
1988;DHT22;12775;46.994;15.498;2023-07-29T14:45:43;33.90;71.10
1988;DHT22;12775;46.994;15.498;2023-07-29T14:48:10;33.70;71.60
1988;DHT22;12775;46.994;15.498;2023-07-29T14:50:37;33.40;69.60
1988;DHT22;12775;46.994;15.498;2023-07-29T14:53:04;33.10;70.50
1988;DHT22;12775;46.994;15.498;2023-07-29T14:55:32;33.10;71.70
1988;DHT22;12775;46.994;15.498;2023-07-29T14:57:58;33.00;71.60
1988;DHT22;12775;46.994;15.498;2023-07-29T15:00:25;32.90;72.60
1988;DHT22;12775;46.994;15.498;2023-07-29T15:02:51;32.90;73.50
1988;DHT22;12775;46.994;15.498;2023-07-29T15:05:18;32.90;74.10
1988;DHT22;12775;46.994;15.498;2023-07-29T15:07:45;33.00;73.00
1988;DHT22;12775;46.994;15.498;2023-07-29T15:10:14;33.10;77.10
1988;DHT22;12775;46.994;15.498;2023-07-29T15:12:38;33.10;77.70
1988;DHT22;12775;46.994;15.498;2023-07-29T15:15:05;33.00;74.30
1988;DHT22;12775;46.994;15.498;2023-07-29T15:17:32;32.90;75.50
1988;DHT22;12775;46.994;15.498;2023-07-29T15:19:58;32.90;73.40
1988;DHT22;12775;46.994;15.498;2023-07-29T15:22:25;32.70;75.00
1988;DHT22;12775;46.994;15.498;2023-07-29T15:24:52;32.50;76.30
1988;DHT22;12775;46.994;15.498;2023-07-29T15:27:19;32.50;76.30
1988;DHT22;12775;46.994;15.498;2023-07-29T15:29:46;32.50;76.40
1988;DHT22;12775;46.994;15.498;2023-07-29T15:32:12;32.00;74.30
1988;DHT22;12775;46.994;15.498;2023-07-29T15:34:39;31.90;75.90
1988;DHT22;12775;46.994;15.498;2023-07-29T15:37:06;31.60;75.70
1988;DHT22;12775;46.994;15.498;2023-07-29T15:39:32;31.30;75.80